Time;durP1;ratioP1;P1;durP2;ratioP2;P2;SDS_P1;SDS_P2;PMS_P1;PMS_P2;Temp;Humidity;BMP_temperature;BMP_pressure;BME280_temperature;BME280_humidity;BME280_pressure;Samples;Min_cycle;Max_cycle;Signal;HPM_P1;HPM_P2
2023/03/18 00:01:48;;;;;;;;;;;13.20;99.90;;;;;;6338239;22;19906;-88
2023/03/18 00:04:13;;;;;;;;;;;13.30;99.90;;;;;;6338553;22;19963;-88
2023/03/18 00:06:39;;;;;;;;;;;12.70;99.90;;;;;;6338404;22;19903;-88
2023/03/18 00:09:05;;;;;;;;;;;12.80;99.90;;;;;;6337859;22;19903;-88
2023/03/18 00:11:31;;;;;;;;;;;13.20;99.90;;;;;;6338309;22;19914;-89
2023/03/18 00:13:57;;;;;;;;;;;12.50;99.90;;;;;;6345468;22;19907;-89
2023/03/18 00:16:24;;;;;;;;;;;13.10;99.90;;;;;;6337819;22;19985;-88
2023/03/18 00:18:49;;;;;;;;;;;12.40;99.90;;;;;;6338603;22;19961;-88
2023/03/18 00:21:15;;;;;;;;;;;13.10;99.90;;;;;;6337900;22;19966;-88
2023/03/18 00:23:41;;;;;;;;;;;11.90;99.90;;;;;;6338428;22;19906;-88
2023/03/18 00:26:07;;;;;;;;;;;12.40;99.90;;;;;;6339224;22;19907;-89
2023/03/18 00:28:33;;;;;;;;;;;12.30;99.90;;;;;;6337826;22;19909;-88
2023/03/18 00:31:06;;;;;;;;;;;13.10;99.90;;;;;;6338591;22;19985;-89
2023/03/18 00:33:33;;;;;;;;;;;12.40;99.90;;;;;;6338240;22;20306;-89
2023/03/18 00:35:59;;;;;;;;;;;12.90;99.90;;;;;;6338193;22;19909;-88
2023/03/18 00:38:28;;;;;;;;;;;13.20;99.90;;;;;;6338259;22;19930;-88
2023/03/18 00:41:10;;;;;;;;;;;12.40;99.90;;;;;;6338578;22;19910;-88
2023/03/18 00:43:45;;;;;;;;;;;13.00;99.90;;;;;;6337373;22;19913;-88
2023/03/18 00:46:17;;;;;;;;;;;12.50;99.90;;;;;;6338507;22;19903;-88
2023/03/18 00:48:43;;;;;;;;;;;12.40;99.90;;;;;;6337893;22;19903;-89
2023/03/18 00:51:12;;;;;;;;;;;13.20;99.90;;;;;;6337751;22;19945;-88
2023/03/18 00:53:42;;;;;;;;;;;13.10;99.90;;;;;;6337655;22;19919;-88
2023/03/18 00:56:07;;;;;;;;;;;12.30;99.90;;;;;;6338512;22;19902;-87
2023/03/18 00:58:33;;;;;;;;;;;12.70;99.90;;;;;;6337416;22;20326;-88
2023/03/18 01:01:00;;;;;;;;;;;12.20;99.90;;;;;;6338278;22;20379;-89
2023/03/18 01:03:25;;;;;;;;;;;13.00;99.90;;;;;;6337416;22;20299;-88
2023/03/18 01:05:52;;;;;;;;;;;13.00;99.90;;;;;;6338551;22;19981;-88
2023/03/18 01:08:18;;;;;;;;;;;12.20;99.90;;;;;;6338386;22;19902;-88
2023/03/18 01:10:44;;;;;;;;;;;12.20;99.90;;;;;;6337393;22;19903;-88
2023/03/18 01:13:09;;;;;;;;;;;13.20;99.90;;;;;;6338247;22;20234;-88
2023/03/18 01:15:35;;;;;;;;;;;13.00;99.90;;;;;;6338201;22;19910;-88
2023/03/18 01:18:01;;;;;;;;;;;12.80;99.90;;;;;;6337835;22;19945;-88
2023/03/18 01:20:29;;;;;;;;;;;12.70;99.90;;;;;;6338212;22;20318;-89
2023/03/18 01:22:55;;;;;;;;;;;12.20;99.90;;;;;;6338662;22;19931;-89
2023/03/18 01:25:21;;;;;;;;;;;12.80;99.90;;;;;;6337410;22;19910;-88
2023/03/18 01:27:46;;;;;;;;;;;12.80;99.90;;;;;;6340824;22;19914;-89
2023/03/18 01:30:12;;;;;;;;;;;12.90;99.90;;;;;;6342221;22;19903;-89
2023/03/18 01:32:38;;;;;;;;;;;12.20;99.90;;;;;;6337329;22;19911;-88
2023/03/18 01:35:04;;;;;;;;;;;12.20;99.90;;;;;;6338487;22;19906;-88
2023/03/18 01:37:30;;;;;;;;;;;12.20;99.90;;;;;;6338344;22;19907;-89
2023/03/18 01:39:55;;;;;;;;;;;12.90;99.90;;;;;;6339408;22;19986;-89
2023/03/18 01:42:21;;;;;;;;;;;11.70;99.90;;;;;;6339413;22;20262;-89
2023/03/18 01:44:47;;;;;;;;;;;12.90;99.90;;;;;;6339771;22;20318;-89
2023/03/18 01:47:14;;;;;;;;;;;12.70;99.90;;;;;;6339350;22;20352;-88
2023/03/18 01:49:51;;;;;;;;;;;12.80;99.90;;;;;;6339699;22;19903;-88
2023/03/18 01:52:19;;;;;;;;;;;12.00;99.90;;;;;;6339349;22;19914;-88
2023/03/18 01:54:51;;;;;;;;;;;12.80;99.90;;;;;;6338463;22;19903;-89
2023/03/18 01:57:18;;;;;;;;;;;12.10;99.90;;;;;;6339768;22;19906;-89
2023/03/18 01:59:44;;;;;;;;;;;12.70;99.90;;;;;;6337580;22;19903;-89
2023/03/18 02:02:11;;;;;;;;;;;12.90;99.90;;;;;;6340075;22;19903;-89
2023/03/18 02:04:41;;;;;;;;;;;12.00;99.90;;;;;;6339631;22;19903;-88
2023/03/18 02:07:12;;;;;;;;;;;12.00;99.90;;;;;;6338974;22;19906;-88
2023/03/18 02:09:37;;;;;;;;;;;12.00;99.90;;;;;;6339627;22;19910;-88
2023/03/18 02:12:06;;;;;;;;;;;12.80;99.90;;;;;;6339628;22;19910;-88
2023/03/18 02:14:31;;;;;;;;;;;12.00;99.90;;;;;;6338757;22;19907;-88
2023/03/18 02:17:07;;;;;;;;;;;12.80;99.90;;;;;;6339876;22;19903;-88
2023/03/18 02:19:41;;;;;;;;;;;10.90;99.90;;;;;;6339363;22;19941;-89
2023/03/18 02:25:10;;;;;;;;;;;12.00;99.90;;;;;;6243102;23;19907;-89
2023/03/18 02:27:38;;;;;;;;;;;12.10;99.90;;;;;;6328394;22;19930;-88
2023/03/18 02:30:16;;;;;;;;;;;12.70;99.90;;;;;;6338513;22;20307;-88
2023/03/18 02:32:43;;;;;;;;;;;12.00;99.90;;;;;;6338575;22;19911;-89
2023/03/18 02:35:15;;;;;;;;;;;11.80;99.90;;;;;;6338967;22;20281;-89
2023/03/18 02:37:46;;;;;;;;;;;12.00;99.90;;;;;;6339249;22;20236;-89
2023/03/18 02:40:15;;;;;;;;;;;12.20;99.90;;;;;;6339884;22;19903;-89
2023/03/18 02:42:41;;;;;;;;;;;12.50;99.90;;;;;;6338859;22;20224;-89
2023/03/18 02:45:12;;;;;;;;;;;12.80;99.90;;;;;;6345596;22;20264;-88
2023/03/18 02:47:47;;;;;;;;;;;12.10;99.90;;;;;;6338794;22;19907;-89
2023/03/18 02:50:13;;;;;;;;;;;12.10;99.90;;;;;;6338257;22;19907;-88
2023/03/18 02:52:39;;;;;;;;;;;12.10;99.90;;;;;;6336516;22;20314;-89
2023/03/18 02:55:05;;;;;;;;;;;12.00;99.90;;;;;;6339385;22;19929;-89
2023/03/18 02:57:31;;;;;;;;;;;12.00;99.90;;;;;;6338357;22;20371;-87
2023/03/18 02:59:56;;;;;;;;;;;12.80;99.90;;;;;;6338832;22;19903;-89
2023/03/18 03:02:22;;;;;;;;;;;12.80;99.90;;;;;;6339099;22;19902;-89
2023/03/18 03:04:48;;;;;;;;;;;12.80;99.90;;;;;;6338341;22;20226;-88
2023/03/18 03:07:13;;;;;;;;;;;12.90;99.90;;;;;;6339340;22;20314;-89
2023/03/18 03:09:40;;;;;;;;;;;12.60;99.90;;;;;;6338865;22;19925;-89
2023/03/18 03:12:06;;;;;;;;;;;12.90;99.90;;;;;;6338018;22;19914;-88
2023/03/18 03:14:32;;;;;;;;;;;12.00;99.90;;;;;;6338662;22;20316;-88
2023/03/18 03:16:57;;;;;;;;;;;12.40;99.90;;;;;;6339645;22;19902;-88
2023/03/18 03:19:25;;;;;;;;;;;12.80;99.90;;;;;;6337784;22;22091;-88
2023/03/18 03:21:50;;;;;;;;;;;12.70;99.90;;;;;;6339021;22;19949;-89
2023/03/18 03:24:19;;;;;;;;;;;11.90;99.90;;;;;;6338374;22;19914;-88
2023/03/18 03:26:44;;;;;;;;;;;12.00;99.90;;;;;;6338621;22;19903;-88
2023/03/18 03:29:19;;;;;;;;;;;12.60;99.90;;;;;;6338463;22;19925;-89
2023/03/18 03:31:45;;;;;;;;;;;11.90;99.90;;;;;;6338135;22;19906;-88
2023/03/18 03:34:10;;;;;;;;;;;12.80;99.90;;;;;;6338726;22;19913;-89
2023/03/18 03:36:36;;;;;;;;;;;12.40;99.90;;;;;;6338904;22;19906;-88
2023/03/18 03:39:02;;;;;;;;;;;12.20;99.90;;;;;;6337976;22;19903;-88
2023/03/18 03:41:28;;;;;;;;;;;12.00;99.90;;;;;;6338343;22;19910;-88
2023/03/18 03:43:53;;;;;;;;;;;12.60;99.90;;;;;;6338594;22;19902;-87
2023/03/18 03:46:22;;;;;;;;;;;12.90;99.90;;;;;;6337942;22;19909;-88
2023/03/18 03:48:48;;;;;;;;;;;12.00;99.90;;;;;;6338750;22;19903;-87
2023/03/18 03:51:14;;;;;;;;;;;13.30;99.90;;;;;;6338766;22;19906;-88
2023/03/18 03:53:39;;;;;;;;;;;12.10;99.90;;;;;;6337155;22;19975;-88
2023/03/18 03:56:06;;;;;;;;;;;12.70;99.90;;;;;;6338797;22;19929;-88
2023/03/18 03:58:32;;;;;;;;;;;12.00;99.90;;;;;;6340143;22;19902;-89
2023/03/18 04:01:09;;;;;;;;;;;12.00;99.90;;;;;;6343470;22;19925;-89
2023/03/18 04:03:34;;;;;;;;;;;11.50;99.90;;;;;;6338244;22;19985;-88
2023/03/18 04:06:00;;;;;;;;;;;12.50;99.90;;;;;;6338906;22;19934;-88
2023/03/18 04:08:26;;;;;;;;;;;13.10;99.90;;;;;;6337558;22;19946;-88
2023/03/18 04:10:52;;;;;;;;;;;12.00;99.90;;;;;;6338898;22;19907;-88
2023/03/18 04:13:17;;;;;;;;;;;12.00;99.90;;;;;;6338273;22;19906;-88
2023/03/18 04:16:19;;;;;;;;;;;;;;;;;;;;;
2023/03/18 04:18:45;;;;;;;;;;;12.00;99.90;;;;;;6330853;22;19990;-88
2023/03/18 04:21:11;;;;;;;;;;;11.90;99.90;;;;;;6337521;22;19945;-88
2023/03/18 04:23:36;;;;;;;;;;;11.90;99.90;;;;;;6338634;22;19932;-88
2023/03/18 04:26:11;;;;;;;;;;;11.80;99.90;;;;;;6338754;22;19909;-89
2023/03/18 04:28:37;;;;;;;;;;;12.20;99.90;;;;;;6338223;22;19981;-88
2023/03/18 04:31:02;;;;;;;;;;;12.40;99.90;;;;;;6338822;22;19934;-88
2023/03/18 04:33:36;;;;;;;;;;;11.90;99.90;;;;;;6338741;22;19909;-89
2023/03/18 04:36:02;;;;;;;;;;;11.90;99.90;;;;;;6338163;22;19909;-89
2023/03/18 04:38:37;;;;;;;;;;;11.90;99.90;;;;;;6337622;22;19938;-88
2023/03/18 04:41:02;;;;;;;;;;;11.70;99.90;;;;;;6338432;22;20258;-90
2023/03/18 04:43:28;;;;;;;;;;;11.90;99.90;;;;;;6337844;22;19902;-89
2023/03/18 04:45:53;;;;;;;;;;;12.70;99.90;;;;;;6338331;22;19910;-89
2023/03/18 04:48:19;;;;;;;;;;;12.40;99.90;;;;;;6338582;22;19921;-88
2023/03/18 04:50:44;;;;;;;;;;;12.40;99.90;;;;;;6337669;22;19910;-89
2023/03/18 04:53:19;;;;;;;;;;;12.40;99.90;;;;;;6338428;22;20208;-89
2023/03/18 04:55:45;;;;;;;;;;;11.80;99.90;;;;;;6337360;22;19909;-88
2023/03/18 04:58:11;;;;;;;;;;;12.40;99.90;;;;;;6338245;22;20312;-89
2023/03/18 05:00:36;;;;;;;;;;;12.50;99.90;;;;;;6338306;22;19913;-87
2023/03/18 05:03:02;;;;;;;;;;;12.40;99.90;;;;;;6337562;22;19986;-88
2023/03/18 05:05:28;;;;;;;;;;;11.80;99.90;;;;;;6338342;22;19922;-89
2023/03/18 05:07:53;;;;;;;;;;;12.30;99.90;;;;;;6338647;22;19903;-87
2023/03/18 05:10:34;;;;;;;;;;;12.20;99.90;;;;;;6338180;22;19906;-89
2023/03/18 05:13:00;;;;;;;;;;;12.30;99.90;;;;;;6339020;22;20241;-88
2023/03/18 05:15:26;;;;;;;;;;;12.50;99.90;;;;;;6342084;22;19903;-89
2023/03/18 05:17:52;;;;;;;;;;;11.80;99.90;;;;;;6340302;22;19914;-87
2023/03/18 05:20:18;;;;;;;;;;;12.10;99.90;;;;;;6340366;22;20311;-87
2023/03/18 05:22:43;;;;;;;;;;;11.80;99.90;;;;;;6339702;22;19906;-89
2023/03/18 05:25:10;;;;;;;;;;;12.30;99.90;;;;;;6339478;22;20319;-88
2023/03/18 05:27:36;;;;;;;;;;;12.50;99.90;;;;;;6339813;22;19989;-87
2023/03/18 05:30:02;;;;;;;;;;;11.90;99.90;;;;;;6340322;22;19930;-89
2023/03/18 05:32:30;;;;;;;;;;;11.80;99.90;;;;;;6338946;22;19910;-88
2023/03/18 05:34:58;;;;;;;;;;;12.70;99.90;;;;;;6339826;22;19926;-88
2023/03/18 05:37:23;;;;;;;;;;;11.70;99.90;;;;;;6339636;22;19902;-88
2023/03/18 05:39:57;;;;;;;;;;;12.70;99.90;;;;;;6339503;22;20326;-90
2023/03/18 05:42:23;;;;;;;;;;;11.90;99.90;;;;;;6339989;22;19902;-89
2023/03/18 05:44:48;;;;;;;;;;;12.50;99.90;;;;;;6339010;22;20329;-89
2023/03/18 05:47:14;;;;;;;;;;;12.10;99.90;;;;;;6339990;22;20227;-88
2023/03/18 05:49:40;;;;;;;;;;;11.70;99.90;;;;;;6339441;22;19911;-88
2023/03/18 05:52:05;;;;;;;;;;;11.70;99.90;;;;;;6339015;22;19976;-88
2023/03/18 05:54:31;;;;;;;;;;;12.10;99.90;;;;;;6339370;22;19916;-89
2023/03/18 05:56:57;;;;;;;;;;;11.80;99.90;;;;;;6339533;22;19903;-88
2023/03/18 05:59:31;;;;;;;;;;;12.80;99.90;;;;;;6337594;22;19903;-89
2023/03/18 06:01:56;;;;;;;;;;;11.80;99.90;;;;;;6339679;22;20367;-88
2023/03/18 06:04:22;;;;;;;;;;;11.60;99.90;;;;;;6339731;22;19934;-88
2023/03/18 06:07:09;;;;;;;;;;;12.60;99.90;;;;;;6338296;22;19981;-88
2023/03/18 06:09:34;;;;;;;;;;;11.80;99.90;;;;;;6339404;22;19959;-89
2023/03/18 06:12:00;;;;;;;;;;;12.30;99.90;;;;;;6339599;22;19914;-88
2023/03/18 06:14:28;;;;;;;;;;;12.50;99.90;;;;;;6338847;22;19906;-87
2023/03/18 06:17:02;;;;;;;;;;;12.30;99.90;;;;;;6339191;22;19919;-88
2023/03/18 06:19:29;;;;;;;;;;;11.80;99.90;;;;;;6339123;22;19909;-88
2023/03/18 06:21:55;;;;;;;;;;;11.90;99.90;;;;;;6338955;22;19934;-88
2023/03/18 06:24:24;;;;;;;;;;;11.60;99.90;;;;;;6338409;22;19902;-88
2023/03/18 06:26:50;;;;;;;;;;;11.40;99.90;;;;;;6339254;22;20460;-89
2023/03/18 06:29:18;;;;;;;;;;;11.80;99.90;;;;;;6339876;22;19902;-88
2023/03/18 06:31:44;;;;;;;;;;;12.10;99.90;;;;;;6343984;22;19911;-87
2023/03/18 06:34:10;;;;;;;;;;;12.30;99.90;;;;;;6338911;22;19907;-89
2023/03/18 06:36:36;;;;;;;;;;;11.80;99.90;;;;;;6338604;22;19902;-89
2023/03/18 06:39:01;;;;;;;;;;;12.60;99.90;;;;;;6339280;22;20325;-87
2023/03/18 06:41:27;;;;;;;;;;;11.60;99.90;;;;;;6337927;22;20203;-89
2023/03/18 06:43:52;;;;;;;;;;;12.40;99.90;;;;;;6338823;22;19968;-89
2023/03/18 06:46:18;;;;;;;;;;;11.60;99.90;;;;;;6339481;22;19977;-88
2023/03/18 06:48:44;;;;;;;;;;;12.00;99.90;;;;;;6337606;22;19981;-88
2023/03/18 06:51:10;;;;;;;;;;;12.50;99.90;;;;;;6339052;22;19981;-88
2023/03/18 06:53:35;;;;;;;;;;;12.50;99.90;;;;;;6338958;22;20297;-87
2023/03/18 06:56:04;;;;;;;;;;;12.50;99.90;;;;;;6338411;22;20310;-88
2023/03/18 06:58:30;;;;;;;;;;;11.60;99.90;;;;;;6338530;22;19951;-89
2023/03/18 07:00:56;;;;;;;;;;;11.20;99.90;;;;;;6338883;22;19926;-89
2023/03/18 07:03:22;;;;;;;;;;;12.40;99.90;;;;;;6338438;22;19910;-89
2023/03/18 07:05:47;;;;;;;;;;;11.60;99.90;;;;;;6339312;22;19910;-87
2023/03/18 07:08:14;;;;;;;;;;;12.10;99.90;;;;;;6339332;22;19902;-88
2023/03/18 07:10:40;;;;;;;;;;;12.30;99.90;;;;;;6338138;22;19914;-88
2023/03/18 07:13:05;;;;;;;;;;;11.60;99.90;;;;;;6339015;22;19914;-87
2023/03/18 07:15:31;;;;;;;;;;;12.20;99.90;;;;;;6338567;22;19910;-88
2023/03/18 07:17:59;;;;;;;;;;;12.30;99.90;;;;;;6338642;22;19907;-89
2023/03/18 07:20:24;;;;;;;;;;;12.10;99.90;;;;;;6338662;22;20032;-88
2023/03/18 07:22:50;;;;;;;;;;;11.90;99.90;;;;;;6338982;22;19930;-89
2023/03/18 07:25:16;;;;;;;;;;;12.60;99.90;;;;;;6338228;22;19910;-89
2023/03/18 07:27:42;;;;;;;;;;;12.10;99.90;;;;;;6338491;22;20401;-89
2023/03/18 07:30:11;;;;;;;;;;;12.80;99.90;;;;;;6338953;22;19948;-88
2023/03/18 07:32:37;;;;;;;;;;;11.70;99.90;;;;;;6338145;22;19949;-88
2023/03/18 07:35:04;;;;;;;;;;;12.40;99.90;;;;;;6339246;22;19910;-87
2023/03/18 07:37:30;;;;;;;;;;;11.70;99.90;;;;;;6337349;22;19914;-87
2023/03/18 07:39:56;;;;;;;;;;;12.30;99.90;;;;;;6338868;22;19903;-87
2023/03/18 07:42:22;;;;;;;;;;;12.50;99.90;;;;;;6338425;22;19903;-87
2023/03/18 07:44:47;;;;;;;;;;;11.80;99.90;;;;;;6338197;22;19948;-88
2023/03/18 07:47:15;;;;;;;;;;;12.00;99.90;;;;;;6339456;22;19981;-88
2023/03/18 07:49:41;;;;;;;;;;;12.80;99.90;;;;;;6338344;22;20023;-88
2023/03/18 07:52:07;;;;;;;;;;;11.90;99.90;;;;;;6337685;22;19911;-88
2023/03/18 07:54:33;;;;;;;;;;;11.80;99.90;;;;;;6338424;22;19975;-87
2023/03/18 07:57:23;;;;;;;;;;;12.10;99.90;;;;;;6338809;22;19907;-88
2023/03/18 07:59:49;;;;;;;;;;;11.90;99.90;;;;;;6337670;22;20226;-87
2023/03/18 08:02:15;;;;;;;;;;;11.90;99.90;;;;;;6338914;22;19903;-88
2023/03/18 08:04:42;;;;;;;;;;;11.40;99.90;;;;;;6338379;22;19914;-87
2023/03/18 08:07:08;;;;;;;;;;;12.50;99.90;;;;;;6337742;22;19903;-88
2023/03/18 08:09:35;;;;;;;;;;;11.90;99.90;;;;;;6338089;22;19918;-88
2023/03/18 08:12:01;;;;;;;;;;;12.00;99.90;;;;;;6338696;22;19982;-87
2023/03/18 08:14:30;;;;;;;;;;;12.80;99.90;;;;;;6337589;22;20311;-87
2023/03/18 08:17:02;;;;;;;;;;;11.80;99.90;;;;;;6338073;22;20016;-88
2023/03/18 08:19:28;;;;;;;;;;;12.00;99.90;;;;;;6337524;22;19909;-87
2023/03/18 08:21:54;;;;;;;;;;;12.40;99.90;;;;;;6338473;22;19989;-87
2023/03/18 08:24:20;;;;;;;;;;;12.80;99.90;;;;;;6338735;22;19907;-88
2023/03/18 08:26:46;;;;;;;;;;;11.50;99.90;;;;;;6337333;22;19972;-89
2023/03/18 08:29:11;;;;;;;;;;;12.40;99.90;;;;;;6338610;22;19933;-88
2023/03/18 08:31:37;;;;;;;;;;;12.00;99.90;;;;;;6337794;22;19956;-88
2023/03/18 08:34:03;;;;;;;;;;;13.10;99.90;;;;;;6337859;22;19902;-88
2023/03/18 08:36:28;;;;;;;;;;;12.50;99.90;;;;;;6337673;22;19903;-88
2023/03/18 08:39:04;;;;;;;;;;;13.20;99.90;;;;;;6338621;22;19910;-87
2023/03/18 08:41:29;;;;;;;;;;;12.30;99.90;;;;;;6335875;22;19911;-89
2023/03/18 08:43:56;;;;;;;;;;;12.60;99.90;;;;;;6338833;22;19909;-89
2023/03/18 08:46:22;;;;;;;;;;;12.50;99.90;;;;;;6337721;22;20360;-89
2023/03/18 08:48:47;;;;;;;;;;;12.80;99.90;;;;;;6338788;22;19994;-88
2023/03/18 08:51:13;;;;;;;;;;;12.90;99.90;;;;;;6340430;22;19934;-88
2023/03/18 08:53:39;;;;;;;;;;;12.60;99.90;;;;;;6339573;22;19944;-89
2023/03/18 08:56:06;;;;;;;;;;;12.10;99.90;;;;;;6339473;22;19906;-89
2023/03/18 08:58:32;;;;;;;;;;;12.10;99.90;;;;;;6341137;22;19902;-89
2023/03/18 09:01:07;;;;;;;;;;;12.20;99.90;;;;;;6344262;22;19902;-89
2023/03/18 09:03:33;;;;;;;;;;;12.20;99.90;;;;;;6341620;22;20302;-89
2023/03/18 09:05:59;;;;;;;;;;;12.70;99.90;;;;;;6340863;22;19902;-89
2023/03/18 09:08:40;;;;;;;;;;;13.00;99.90;;;;;;6339938;22;19903;-91
2023/03/18 09:11:08;;;;;;;;;;;12.20;99.90;;;;;;6339639;22;20456;-89
2023/03/18 09:13:34;;;;;;;;;;;12.30;99.90;;;;;;6339374;22;19902;-91
2023/03/18 09:18:57;;;;;;;;;;;12.90;99.90;;;;;;6335213;22;19928;-88
2023/03/18 09:21:22;;;;;;;;;;;12.80;99.90;;;;;;6339633;22;19910;-88
2023/03/18 09:23:56;;;;;;;;;;;13.10;99.90;;;;;;6338857;22;19903;-89
2023/03/18 09:26:28;;;;;;;;;;;12.30;99.90;;;;;;6339651;22;19903;-89
2023/03/18 09:28:57;;;;;;;;;;;12.30;99.90;;;;;;6339941;22;19902;-90
2023/03/18 09:31:23;;;;;;;;;;;12.00;99.90;;;;;;6338578;22;20315;-90
2023/03/18 09:34:06;;;;;;;;;;;13.00;99.90;;;;;;6339836;22;19910;-89
2023/03/18 09:36:42;;;;;;;;;;;12.40;99.90;;;;;;6339455;22;19925;-89
2023/03/18 09:39:08;;;;;;;;;;;12.50;99.90;;;;;;6339167;22;19938;-90
2023/03/18 09:41:40;;;;;;;;;;;13.10;99.90;;;;;;6338771;22;20314;-88
2023/03/18 09:44:11;;;;;;;;;;;12.40;99.90;;;;;;6339048;22;19903;-88
2023/03/18 09:46:59;;;;;;;;;;;12.50;99.90;;;;;;6337571;22;19969;-89
2023/03/18 09:50:07;;;;;;;;;;;12.60;99.90;;;;;;6339306;22;19902;-90
2023/03/18 09:52:42;;;;;;;;;;;13.20;99.90;;;;;;6182655;23;19931;-90
2023/03/18 09:55:16;;;;;;;;;;;12.60;99.90;;;;;;6184198;23;19932;-88
2023/03/18 09:57:44;;;;;;;;;;;12.60;99.90;;;;;;6340965;22;19903;-90
2023/03/18 10:00:16;;;;;;;;;;;13.30;99.90;;;;;;6339860;22;19914;-90
2023/03/18 10:02:45;;;;;;;;;;;12.70;99.90;;;;;;6340553;22;19902;-90
2023/03/18 10:05:20;;;;;;;;;;;12.80;99.90;;;;;;6339859;22;20223;-89
2023/03/18 10:07:48;;;;;;;;;;;12.70;99.90;;;;;;6339629;22;19906;-89
2023/03/18 10:10:24;;;;;;;;;;;13.50;99.90;;;;;;6340278;22;19926;-90
2023/03/18 10:13:10;;;;;;;;;;;13.30;99.90;;;;;;6339483;22;19915;-90
2023/03/18 10:15:38;;;;;;;;;;;12.80;99.90;;;;;;6341860;22;19903;-89
2023/03/18 10:18:10;;;;;;;;;;;12.80;99.90;;;;;;6347776;22;19906;-89
2023/03/18 10:20:50;;;;;;;;;;;12.80;99.90;;;;;;6337098;22;19926;-89
2023/03/18 10:23:24;;;;;;;;;;;12.50;99.90;;;;;;6338467;22;19906;-88
2023/03/18 10:25:54;;;;;;;;;;;13.40;99.90;;;;;;6339601;22;19907;-88
2023/03/18 10:28:39;;;;;;;;;;;12.90;99.90;;;;;;6338809;22;19906;-88
2023/03/18 10:31:22;;;;;;;;;;;12.80;99.90;;;;;;6339257;22;19910;-89
2023/03/18 10:34:08;;;;;;;;;;;12.90;99.90;;;;;;6338752;22;19909;-88
2023/03/18 10:36:54;;;;;;;;;;;12.90;99.90;;;;;;6339043;22;19903;-88
2023/03/18 10:39:22;;;;;;;;;;;12.90;99.90;;;;;;6338427;22;19982;-88
2023/03/18 10:41:48;;;;;;;;;;;13.70;99.90;;;;;;6335578;22;19930;-88
2023/03/18 10:47:22;;;;;;;;;;;12.90;99.90;;;;;;6257492;22;19932;-87
2023/03/18 10:50:16;;;;;;;;;;;12.90;99.90;;;;;;6338252;22;19977;-87
2023/03/18 10:53:01;;;;;;;;;;;12.90;99.90;;;;;;6310205;22;19915;-89
2023/03/18 10:55:34;;;;;;;;;;;12.90;99.90;;;;;;6336853;22;19911;-89
2023/03/18 10:58:00;;;;;;;;;;;13.00;99.90;;;;;;6338205;22;19903;-88
2023/03/18 11:00:26;;;;;;;;;;;13.70;99.90;;;;;;6337754;22;19902;-88
2023/03/18 11:02:55;;;;;;;;;;;13.00;99.90;;;;;;6336819;22;19906;-90
2023/03/18 11:05:28;;;;;;;;;;;12.60;99.90;;;;;;6337927;22;19902;-88
2023/03/18 11:08:05;;;;;;;;;;;13.00;99.90;;;;;;6338493;22;19934;-87
2023/03/18 11:10:34;;;;;;;;;;;13.40;99.90;;;;;;6336589;22;19930;-88
2023/03/18 11:13:01;;;;;;;;;;;12.90;99.90;;;;;;6336838;22;19914;-89
2023/03/18 11:15:38;;;;;;;;;;;13.20;99.90;;;;;;6336326;22;19909;-90
2023/03/18 11:18:33;;;;;;;;;;;13.00;99.90;;;;;;6338544;22;19914;-89
2023/03/18 11:21:36;;;;;;;;;;;13.00;99.90;;;;;;6337875;22;19911;-89
2023/03/18 11:24:35;;;;;;;;;;;13.10;99.90;;;;;;6328734;22;19903;-89
2023/03/18 11:27:22;;;;;;;;;;;12.80;99.90;;;;;;6337699;22;19911;-88
2023/03/18 11:33:11;;;;;;;;;;;13.00;99.90;;;;;;6346481;22;19944;-88
2023/03/18 11:35:39;;;;;;;;;;;13.00;99.90;;;;;;6338195;22;20307;-89
2023/03/18 11:38:06;;;;;;;;;;;14.00;99.90;;;;;;6336052;22;19928;-89
2023/03/18 11:40:47;;;;;;;;;;;13.10;99.90;;;;;;6337327;22;20325;-90
2023/03/18 11:45:44;;;;;;;;;;;13.10;99.90;;;;;;6335633;22;19949;-89
2023/03/18 11:48:13;;;;;;;;;;;13.10;99.90;;;;;;6337322;22;19902;-88
2023/03/18 11:50:44;;;;;;;;;;;13.90;99.90;;;;;;6338740;22;19903;-89
2023/03/18 11:53:39;;;;;;;;;;;13.50;99.90;;;;;;6339828;22;19968;-90
2023/03/18 11:56:13;;;;;;;;;;;13.20;99.90;;;;;;6338569;22;20319;-88
2023/03/18 11:59:06;;;;;;;;;;;13.30;99.90;;;;;;6336178;22;19981;-89
2023/03/18 12:01:31;;;;;;;;;;;12.90;99.90;;;;;;6338313;22;20223;-90
2023/03/18 12:04:08;;;;;;;;;;;13.90;99.90;;;;;;6338888;22;19903;-90
2023/03/18 12:06:39;;;;;;;;;;;13.20;99.90;;;;;;6336913;22;20345;-89
2023/03/18 12:09:10;;;;;;;;;;;13.40;99.90;;;;;;6338938;22;19981;-89
2023/03/18 12:11:52;;;;;;;;;;;13.30;99.90;;;;;;6337311;22;19906;-89
2023/03/18 12:14:32;;;;;;;;;;;13.20;99.90;;;;;;6337927;22;20311;-89
2023/03/18 12:17:15;;;;;;;;;;;13.30;99.90;;;;;;6338305;22;19981;-89
2023/03/18 12:20:06;;;;;;;;;;;13.40;99.90;;;;;;6336480;22;19946;-90
2023/03/18 12:22:56;;;;;;;;;;;13.30;99.90;;;;;;6337703;22;19949;-89
2023/03/18 12:25:34;;;;;;;;;;;13.30;99.90;;;;;;6337668;22;20059;-88
2023/03/18 12:28:11;;;;;;;;;;;13.30;99.90;;;;;;6337898;22;19903;-89
2023/03/18 12:30:40;;;;;;;;;;;13.30;99.90;;;;;;6338233;22;19903;-89
2023/03/18 12:33:27;;;;;;;;;;;13.20;99.90;;;;;;6337530;22;19911;-88
2023/03/18 12:35:52;;;;;;;;;;;13.50;99.90;;;;;;6338392;22;20290;-88
2023/03/18 12:38:37;;;;;;;;;;;13.90;99.90;;;;;;6338399;22;19903;-88
2023/03/18 12:41:08;;;;;;;;;;;13.60;99.90;;;;;;6337822;22;19913;-88
2023/03/18 12:43:46;;;;;;;;;;;14.00;99.90;;;;;;6337493;22;20310;-88
2023/03/18 12:46:20;;;;;;;;;;;13.20;99.90;;;;;;6339243;22;19975;-88
2023/03/18 12:48:51;;;;;;;;;;;13.70;99.90;;;;;;6340751;22;20261;-88
2023/03/18 12:51:24;;;;;;;;;;;13.80;99.90;;;;;;6337854;22;19909;-88
2023/03/18 12:53:52;;;;;;;;;;;13.80;99.90;;;;;;6337485;22;19907;-88
2023/03/18 12:56:20;;;;;;;;;;;13.80;99.90;;;;;;6337924;22;20330;-88
2023/03/18 12:58:54;;;;;;;;;;;13.90;99.90;;;;;;6337995;22;19936;-89
2023/03/18 13:01:23;;;;;;;;;;;13.90;99.90;;;;;;6337773;22;19984;-89
2023/03/18 13:03:48;;;;;;;;;;;14.00;99.90;;;;;;6338964;22;19902;-89
2023/03/18 13:06:17;;;;;;;;;;;14.70;99.90;;;;;;6338015;22;20328;-88
2023/03/18 13:08:43;;;;;;;;;;;14.10;99.90;;;;;;6337054;22;19903;-88
2023/03/18 13:11:28;;;;;;;;;;;14.60;99.90;;;;;;6337735;22;19906;-88
2023/03/18 13:13:55;;;;;;;;;;;14.00;99.90;;;;;;6338398;22;19903;-88
2023/03/18 13:16:24;;;;;;;;;;;14.10;99.90;;;;;;6336651;22;19903;-89
2023/03/18 13:18:51;;;;;;;;;;;14.90;99.90;;;;;;6337882;22;19906;-88
2023/03/18 13:21:19;;;;;;;;;;;15.50;99.90;;;;;;6338398;22;19903;-89
2023/03/18 13:23:44;;;;;;;;;;;14.70;99.90;;;;;;6337008;22;20287;-89
2023/03/18 13:26:21;;;;;;;;;;;15.00;99.90;;;;;;6338251;22;19934;-88
2023/03/18 13:29:05;;;;;;;;;;;14.30;99.90;;;;;;6338117;22;20285;-88
2023/03/18 13:31:48;;;;;;;;;;;14.40;99.90;;;;;;6337258;22;20368;-88
2023/03/18 13:34:14;;;;;;;;;;;14.40;99.90;;;;;;6338864;22;19977;-89
2023/03/18 13:36:39;;;;;;;;;;;15.20;99.90;;;;;;6338375;22;19937;-89
2023/03/18 13:39:10;;;;;;;;;;;14.40;99.90;;;;;;6340036;22;19910;-89
2023/03/18 13:41:50;;;;;;;;;;;14.40;99.90;;;;;;6339164;22;19903;-89
2023/03/18 13:44:23;;;;;;;;;;;14.40;99.90;;;;;;6338916;22;19918;-88
2023/03/18 13:46:59;;;;;;;;;;;14.40;99.90;;;;;;6339617;22;19948;-89
2023/03/18 13:49:29;;;;;;;;;;;14.40;99.90;;;;;;6339065;22;19911;-88
2023/03/18 13:51:57;;;;;;;;;;;15.80;99.90;;;;;;6338824;22;19914;-88
2023/03/18 13:54:42;;;;;;;;;;;14.60;99.90;;;;;;6339439;22;19928;-90
2023/03/18 13:57:30;;;;;;;;;;;14.70;99.90;;;;;;6339707;22;19903;-90
2023/03/18 14:00:21;;;;;;;;;;;14.80;99.90;;;;;;6340341;22;19913;-89
2023/03/18 14:03:12;;;;;;;;;;;14.90;99.90;;;;;;6342327;22;19913;-91
2023/03/18 14:06:07;;;;;;;;;;;15.30;99.90;;;;;;6344526;22;19902;-90
2023/03/18 14:08:41;;;;;;;;;;;15.20;99.90;;;;;;6331542;22;19999;-90
2023/03/18 14:11:15;;;;;;;;;;;15.20;99.90;;;;;;6338239;22;19902;-89
2023/03/18 14:13:43;;;;;;;;;;;15.30;99.90;;;;;;6338444;22;19910;-89
2023/03/18 14:16:10;;;;;;;;;;;15.40;99.90;;;;;;6338407;22;20308;-89
2023/03/18 14:19:04;;;;;;;;;;;15.50;99.90;;;;;;6337334;22;19915;-89
2023/03/18 14:21:31;;;;;;;;;;;15.50;99.90;;;;;;6181491;23;19947;-89
2023/03/18 14:24:11;;;;;;;;;;;15.70;99.90;;;;;;6183247;23;19912;-89
2023/03/18 14:26:37;;;;;;;;;;;15.60;99.90;;;;;;6323302;22;19907;-88
2023/03/18 14:29:06;;;;;;;;;;;15.90;99.90;;;;;;6339586;22;19903;-89
2023/03/18 14:31:37;;;;;;;;;;;15.80;99.90;;;;;;6339191;22;19949;-89
2023/03/18 14:34:13;;;;;;;;;;;15.90;99.90;;;;;;6338636;22;19910;-89
2023/03/18 14:36:39;;;;;;;;;;;15.80;99.90;;;;;;6339358;22;19942;-89
2023/03/18 14:39:06;;;;;;;;;;;16.60;99.90;;;;;;6339536;22;19941;-89
2023/03/18 14:41:40;;;;;;;;;;;16.70;99.90;;;;;;6338152;22;19909;-88
2023/03/18 14:44:20;;;;;;;;;;;15.90;99.90;;;;;;6338981;22;19910;-89
2023/03/18 14:46:48;;;;;;;;;;;15.90;99.90;;;;;;6338012;22;19910;-89
2023/03/18 14:49:34;;;;;;;;;;;16.80;99.90;;;;;;6339425;22;19903;-89
2023/03/18 14:52:06;;;;;;;;;;;16.10;99.90;;;;;;6339287;22;19910;-89